METAR Data
IDs: Format: Raw Decoded Include TAF

Data at: 0608 UTC 24 Sep 2018

KULM 240555Z AUTO 17012G17KT 10SM CLR 17/12 A2990 RMK AO2
KULM 240455Z AUTO 16011G15KT 10SM CLR 17/12 A2990 RMK AO2
KULM 240355Z AUTO 16012KT 10SM CLR 18/12 A2990 RMK AO2
KULM 240255Z AUTO 16010KT 10SM CLR 18/11 A2989 RMK AO2
KULM 240155Z AUTO 16012KT 10SM CLR 19/11 A2988 RMK AO2
KULM 240055Z AUTO 16010KT 10SM CLR 20/10 A2989 RMK AO2
KULM 232355Z AUTO 16009KT 10SM CLR 22/10 A2988 RMK AO2
KULM 232255Z AUTO 16014G21KT 10SM CLR 24/09 A2988 RMK AO2
KULM 232235Z AUTO 16014G20KT 10SM CLR 24/08 A2988 RMK AO2
KULM 232215Z AUTO 16013G20KT 10SM CLR 24/08 A2989 RMK AO2
KULM 232155Z AUTO 16015G21KT 10SM CLR 24/08 A2989 RMK AO2
KULM 232135Z AUTO 16014G20KT 10SM CLR 25/08 A2989 RMK AO2
KULM 232115Z AUTO 16014G20KT 10SM CLR 25/09 A2990 RMK AO2
KULM 232055Z AUTO 16011G21KT 10SM CLR 25/09 A2990 RMK AO2
KULM 232035Z AUTO 17017G20KT 10SM CLR 25/09 A2991 RMK AO2
KULM 232015Z AUTO 15014G19KT 10SM CLR 25/09 A2992 RMK AO2
KULM 231955Z AUTO 16013G21KT 10SM 24/09 A2992 RMK AO2
KULM 231935Z AUTO 16016KT 10SM CLR 24/10 A2993 RMK AO2
KULM 231915Z AUTO 16016G21KT 10SM CLR 24/11 A2994 RMK AO2
KULM 231855Z AUTO 17015G21KT 10SM CLR 24/11 A2995 RMK AO2
KULM 231835Z AUTO 16015G18KT 10SM CLR 23/11 A2996 RMK AO2
KULM 231815Z AUTO 16014G17KT 10SM 23/12 A2997 RMK AO2
KULM 231755Z AUTO 17015G20KT 10SM 23/12 A2997 RMK AO2
KULM 231735Z AUTO 19013KT 10SM CLR 22/11 A2998 RMK AO2
KULM 231715Z AUTO 16011G16KT 10SM CLR 22/11 A2999 RMK AO2
KULM 231655Z AUTO 16010KT 10SM CLR 21/11 A3000 RMK AO2
KULM 231635Z AUTO 17010KT 10SM CLR 21/11 A3000 RMK AO2
KULM 231615Z AUTO 17014KT 10SM CLR 20/11 A3001 RMK AO2
KULM 231556Z AUTO 17013G16KT 10SM CLR 19/11 A3001 RMK AO2
KULM 231535Z AUTO 17011KT 10SM CLR 18/11 A3001 RMK AO2
KULM 231515Z AUTO 18009KT 10SM CLR 17/11 A3001 RMK AO2
KULM 231456Z AUTO 16011KT 10SM CLR 16/10 A3001 RMK AO2
KULM 231435Z AUTO 17011G15KT 10SM CLR 14/10 A3001 RMK AO2
KULM 231415Z AUTO 17011G15KT 10SM CLR 13/09 A3001 RMK AO2
KULM 231356Z AUTO 16009G14KT 10SM CLR 13/09 A3001 RMK AO2
KULM 231335Z AUTO 16008KT 10SM CLR 12/09 A3002 RMK AO2
KULM 231315Z AUTO 15008KT 10SM CLR 11/09 A3002 RMK AO2
KULM 231255Z AUTO 15005KT 10SM CLR 11/08 A3002 RMK AO2
KULM 231235Z AUTO 15006KT 10SM CLR 10/08 A3002 RMK AO2
KULM 231215Z AUTO 15005KT 10SM CLR 09/08 A3002 RMK AO2
KULM 231155Z AUTO 15005KT 10SM CLR 10/08 A3001 RMK AO2
KULM 231135Z AUTO 15006KT 10SM CLR 10/08 A3001 RMK AO2
KULM 231115Z AUTO 15006KT 10SM CLR 10/08 A3001 RMK AO2
KULM 231055Z AUTO 14006KT 10SM CLR 10/08 A3001 RMK AO2
KULM 231035Z AUTO 16006KT 10SM CLR 10/08 A3002 RMK AO2
KULM 231015Z AUTO 15006KT 10SM CLR 10/08 A3002 RMK AO2
KULM 230955Z AUTO 15007KT 10SM CLR 10/08 A3002 RMK AO2
KULM 230935Z AUTO 15007KT 10SM CLR 11/08 A3001 RMK AO2
KULM 230915Z AUTO 16006KT 10SM CLR 11/08 A3001 RMK AO2
KULM 230855Z AUTO 16007KT 10SM CLR 11/08 A3002 RMK AO2
KULM 230835Z AUTO 16006KT 10SM CLR 11/08 A3002 RMK AO2
KULM 230815Z AUTO 17007KT 10SM CLR 11/08 A3002 RMK AO2
KULM 230755Z AUTO 17006KT 10SM CLR 12/08 A3003 RMK AO2
KULM 230735Z AUTO 17008KT 10SM CLR 12/08 A3003 RMK AO2
KULM 230715Z AUTO 18007KT 10SM CLR 12/08 A3003 RMK AO2
KULM 230655Z AUTO 18008KT 10SM CLR 12/08 A3004 RMK AO2
KULM 230635Z AUTO 18008KT 10SM CLR 12/08 A3004 RMK AO2
KULM 230615Z AUTO 18008KT 10SM CLR 12/08 A3004 RMK AO2
KULM 230555Z AUTO 18008KT 10SM CLR 12/08 A3004 RMK AO2
KULM 230535Z AUTO 18009KT 10SM CLR 13/08 A3004 RMK AO2
KULM 230515Z AUTO 19010KT 10SM CLR 13/08 A3004 RMK AO2
KULM 230455Z AUTO 18010KT 10SM CLR 13/08 A3005 RMK AO2
KULM 230435Z AUTO 18010KT 10SM CLR 13/08 A3005 RMK AO2
KULM 230415Z AUTO 17009KT 10SM CLR 13/08 A3005 RMK AO2
KULM 230355Z AUTO 18007KT 10SM CLR 13/08 A3005 RMK AO2
KULM 230335Z AUTO 17007KT 10SM CLR 12/08 A3005 RMK AO2
KULM 230315Z AUTO 17007KT 10SM SCT100 13/08 A3005 RMK AO2
KULM 230255Z AUTO 17007KT 10SM SCT100 13/08 A3005 RMK AO2
KULM 230235Z AUTO 16007KT 10SM SCT100 14/08 A3005 RMK AO2
KULM 230215Z AUTO 16009KT 10SM SCT100 14/08 A3004 RMK AO2
KULM 230155Z AUTO 16008KT 10SM CLR 14/08 A3004 RMK AO2
KULM 230135Z AUTO 16008KT 10SM CLR 14/08 A3004 RMK AO2
KULM 230115Z AUTO 15006KT 10SM CLR 14/08 A3003 RMK AO2
KULM 230055Z AUTO 16006KT 10SM SCT100 14/08 A3004 RMK AO2
KULM 230035Z AUTO 16007KT 10SM SCT100 15/08 A3004 RMK AO2
KULM 230015Z AUTO 17008KT 10SM SCT100 17/08 A3004 RMK AO2
KULM 222355Z AUTO 17009KT 10SM CLR 17/08 A3004 RMK AO2
KULM 222335Z AUTO 16011KT 10SM CLR 18/08 A3003 RMK AO2
KULM 222315Z AUTO 16009KT 10SM CLR 18/08 A3004 RMK AO2
KULM 222255Z AUTO 18012G15KT 10SM CLR 19/07 A3005 RMK AO2
KULM 222235Z AUTO 18014G18KT 10SM CLR 19/07 A3006 RMK AO2
KULM 222215Z AUTO 19011KT 10SM CLR 19/07 A3006 RMK AO2
KULM 222155Z AUTO 19011KT 10SM CLR 1/07 A3008 RMK AO2
KULM 222144Z AUTO 19000KT 10SM CLR 19/07 A3008 RMK AO2
KULM 222115Z AUTO 17012KT 10SM CLR 19/08 A3009 RMK AO2
KULM 222056Z AUTO 18012KT CLR 19/08 A3009 RMK AO2
KULM 222036Z AUTO 17011G16KT 10SM CLR 19/08 A3010 RMK AO2
KULM 222015Z AUTO 17014G17KT 10SM CLR 19/08 A3011 RMK AO2
KULM 221955Z AUTO 17009KT 10SM 19/08 A3012 RMK AO2
KULM 221935Z AUTO 18011KT 10SM 18/07 A3013 RMK AO2
KULM 221915Z AUTO 17011G17KT 10SM CLR 18/08 A3014 RMK AO2
KULM 221855Z AUTO 16009G17KT 10SM CLR 17/08 A3015 RMK AO2
KULM 221835Z AUTO 17013G16KT 10SM CLR 17/08 A3016 RMK AO2
KULM 221815Z AUTO 18010KT 10SM CLR 17/07 A3017 RMK AO2